Аэропорт: Гомель. Гомель

ICAO: UMGG

METAR:
2018/11/19 10:00
UMGG 191000Z 10004MPS 9999 OVC006 M01/M01 Q1029 R10/520245 NOSIG RMK QBB180
METAR:
2018/11/19 06:21
TAF UMGG 190500Z 1906/2006 03005MPS 0400 FZFG OVC002 
      TEMPO 1906/1909 1200 FZDZ BR 
     FM190900 05007MPS 2000 BR BKN005 
      TEMPO 1914/2006 1200 BR OVC004